createdAt,value
2023-03-02T00:00:07.756Z,52.47
2023-03-02T00:00:18.031Z,52.58
2023-03-02T00:00:28.237Z,52.58
2023-03-02T00:00:38.483Z,52.47
2023-03-02T00:00:48.753Z,52.47
2023-03-02T00:00:58.983Z,52.47
2023-03-02T00:01:09.223Z,52.47
2023-03-02T00:01:19.468Z,52.47
2023-03-02T00:01:29.721Z,52.47
2023-03-02T00:01:39.977Z,52.47
2023-03-02T00:01:50.212Z,52.47
2023-03-02T00:02:00.462Z,52.47
2023-03-02T00:02:10.864Z,52.47
2023-03-02T00:02:21.169Z,52.47
2023-03-02T00:02:31.467Z,52.47
2023-03-02T00:02:41.792Z,52.47
2023-03-02T00:02:52.133Z,52.58
2023-03-02T00:03:02.428Z,52.69
2023-03-02T00:03:12.664Z,52.69
2023-03-02T00:03:22.997Z,52.69
2023-03-02T00:03:33.311Z,52.79
2023-03-02T00:03:43.616Z,52.69
2023-03-02T00:03:53.987Z,52.69
2023-03-02T00:04:04.296Z,52.69
2023-03-02T00:04:14.552Z,52.69
2023-03-02T00:04:24.799Z,52.69
2023-03-02T00:04:35.044Z,52.69
2023-03-02T00:04:45.283Z,52.70
2023-03-02T00:04:55.534Z,52.79
2023-03-02T00:05:05.790Z,52.79
2023-03-02T00:05:16.045Z,52.92
2023-03-02T00:05:26.278Z,52.89
2023-03-02T00:05:36.521Z,52.92
2023-03-02T00:05:46.784Z,52.92
2023-03-02T00:05:57.008Z,53.02
2023-03-02T00:06:07.256Z,53.02
2023-03-02T00:06:17.514Z,53.02
2023-03-02T00:06:27.771Z,53.02
2023-03-02T00:06:37.993Z,53.12
2023-03-02T00:06:48.248Z,53.12
2023-03-02T00:06:58.497Z,53.12
2023-03-02T00:07:08.745Z,53.12
2023-03-02T00:07:18.981Z,53.23
2023-03-02T00:07:29.241Z,53.34
2023-03-02T00:07:39.473Z,53.44
2023-03-02T00:07:49.742Z,53.55
2023-03-02T00:07:59.988Z,53.65
2023-03-02T00:08:10.237Z,53.65
2023-03-02T00:08:20.484Z,53.65
2023-03-02T00:08:30.728Z,53.65
2023-03-02T00:08:40.983Z,53.65
2023-03-02T00:08:51.222Z,53.65
2023-03-02T00:09:01.464Z,53.44
2023-03-02T00:09:11.714Z,53.34
2023-03-02T00:09:21.955Z,53.23
2023-03-02T00:09:32.204Z,53.12
2023-03-02T00:09:42.464Z,53.12
2023-03-02T00:09:52.706Z,53.12
2023-03-02T00:10:02.947Z,53.12
2023-03-02T00:10:13.209Z,53.12
2023-03-02T00:10:23.457Z,53.02
2023-03-02T00:10:33.699Z,53.02
2023-03-02T00:10:43.949Z,53.02
2023-03-02T00:10:54.187Z,53.02
2023-03-02T00:11:04.457Z,53.02
2023-03-02T00:11:14.677Z,52.92
2023-03-02T00:11:24.921Z,52.92
2023-03-02T00:11:35.166Z,53.02
2023-03-02T00:11:45.429Z,53.02
2023-03-02T00:11:55.674Z,52.92
2023-03-02T00:12:05.920Z,52.92
2023-03-02T00:12:16.158Z,52.81
2023-03-02T00:12:26.413Z,52.81
2023-03-02T00:12:36.652Z,52.81
2023-03-02T00:12:46.907Z,52.81
2023-03-02T00:12:57.148Z,52.81
2023-03-02T00:13:07.411Z,52.92
2023-03-02T00:13:17.708Z,52.92
2023-03-02T00:13:27.959Z,52.81
2023-03-02T00:13:38.218Z,52.81
2023-03-02T00:13:48.446Z,52.81
2023-03-02T00:13:58.703Z,52.70
2023-03-02T00:14:08.944Z,52.70
2023-03-02T00:14:19.205Z,52.60
2023-03-02T00:14:29.463Z,52.60
2023-03-02T00:14:39.708Z,52.60
2023-03-02T00:14:49.959Z,52.70
2023-03-02T00:15:00.199Z,52.81
2023-03-02T00:15:10.481Z,52.92
2023-03-02T00:15:20.703Z,53.12
2023-03-02T00:15:31.008Z,53.23
2023-03-02T00:15:41.276Z,53.34
2023-03-02T00:15:51.642Z,53.23
2023-03-02T00:16:01.962Z,53.23
2023-03-02T00:16:12.250Z,53.23
2023-03-02T00:16:22.540Z,53.34
2023-03-02T00:16:33.216Z,53.34
2023-03-02T00:16:43.161Z,53.34
2023-03-02T00:16:53.412Z,53.34
2023-03-02T00:17:03.657Z,53.34
2023-03-02T00:17:13.898Z,53.34
2023-03-02T00:17:24.145Z,53.55
2023-03-02T00:17:34.412Z,53.65
2023-03-02T00:17:44.656Z,53.78
2023-03-02T00:17:54.889Z,53.76
2023-03-02T00:18:05.142Z,53.65
2023-03-02T00:18:15.382Z,53.67
2023-03-02T00:18:25.652Z,53.57
2023-03-02T00:18:35.894Z,53.47
2023-03-02T00:18:46.140Z,53.36
2023-03-02T00:18:56.399Z,53.25
2023-03-02T00:19:06.656Z,53.25
2023-03-02T00:19:16.919Z,53.25
2023-03-02T00:19:27.134Z,53.15
2023-03-02T00:19:37.381Z,53.15
2023-03-02T00:19:47.636Z,53.05
2023-03-02T00:19:57.865Z,53.05
2023-03-02T00:20:08.117Z,53.05
2023-03-02T00:20:18.360Z,52.94
2023-03-02T00:20:28.623Z,52.94
2023-03-02T00:20:38.867Z,52.94
2023-03-02T00:20:49.128Z,52.94
2023-03-02T00:20:59.376Z,52.94
2023-03-02T00:21:09.615Z,53.05
2023-03-02T00:21:19.878Z,53.05
2023-03-02T00:21:30.147Z,53.05
2023-03-02T00:21:40.361Z,53.15
2023-03-02T00:21:50.605Z,53.15
2023-03-02T00:22:00.859Z,53.25
2023-03-02T00:22:11.317Z,53.25
2023-03-02T00:22:21.520Z,53.25
2023-03-02T00:22:31.760Z,53.36
2023-03-02T00:22:42.006Z,53.36
2023-03-02T00:22:52.261Z,53.47
2023-03-02T00:23:02.506Z,53.47
2023-03-02T00:23:12.747Z,53.47
2023-03-02T00:23:22.999Z,53.47
2023-03-02T00:23:33.233Z,53.47
2023-03-02T00:23:43.480Z,53.57
2023-03-02T00:23:53.734Z,53.67
2023-03-02T00:24:03.969Z,53.78
2023-03-02T00:24:14.214Z,53.89
2023-03-02T00:24:24.459Z,54.10
2023-03-02T00:24:34.705Z,54.10
2023-03-02T00:24:44.970Z,53.99
2023-03-02T00:24:55.209Z,53.78
2023-03-02T00:25:05.512Z,53.67
2023-03-02T00:25:15.711Z,53.67
2023-03-02T00:25:25.951Z,53.57
2023-03-02T00:25:36.198Z,53.57
2023-03-02T00:25:46.442Z,53.57
2023-03-02T00:25:56.706Z,53.67
2023-03-02T00:26:06.950Z,53.78
2023-03-02T00:26:17.195Z,53.78
2023-03-02T00:26:27.441Z,53.78
2023-03-02T00:26:37.686Z,53.67
2023-03-02T00:26:47.934Z,53.57
2023-03-02T00:26:58.182Z,53.47
2023-03-02T00:27:08.441Z,53.47
2023-03-02T00:27:18.692Z,53.47
2023-03-02T00:27:28.926Z,53.47
2023-03-02T00:27:39.175Z,53.47
2023-03-02T00:27:49.420Z,53.47
2023-03-02T00:27:59.688Z,53.36
2023-03-02T00:28:09.935Z,53.36
2023-03-02T00:28:20.203Z,53.47
2023-03-02T00:28:30.446Z,53.57
2023-03-02T00:28:40.693Z,53.67
2023-03-02T00:28:50.937Z,53.89
2023-03-02T00:29:01.181Z,53.99
2023-03-02T00:29:11.428Z,54.10
2023-03-02T00:29:21.683Z,53.99
2023-03-02T00:29:31.927Z,53.89
2023-03-02T00:29:42.188Z,53.89
2023-03-02T00:29:52.421Z,53.89
2023-03-02T00:30:02.666Z,53.99
2023-03-02T00:30:13.014Z,53.99
2023-03-02T00:30:23.260Z,54.10
2023-03-02T00:30:33.502Z,54.20
2023-03-02T00:30:43.744Z,54.31
2023-03-02T00:30:54.014Z,54.41
2023-03-02T00:31:04.270Z,54.52
2023-03-02T00:31:14.581Z,54.41
2023-03-02T00:31:24.845Z,54.20
2023-03-02T00:31:35.162Z,54.02
2023-03-02T00:31:45.496Z,53.91
2023-03-02T00:31:55.904Z,53.91
2023-03-02T00:32:06.093Z,53.81
2023-03-02T00:32:16.337Z,53.81
2023-03-02T00:32:26.598Z,53.78
2023-03-02T00:32:36.935Z,53.91
2023-03-02T00:32:47.190Z,53.89
2023-03-02T00:32:57.435Z,53.81
2023-03-02T00:33:07.677Z,53.81
2023-03-02T00:33:17.946Z,53.70
2023-03-02T00:33:28.204Z,53.70
2023-03-02T00:33:38.452Z,53.59
2023-03-02T00:33:48.689Z,53.70
2023-03-02T00:33:58.952Z,53.70
2023-03-02T00:34:09.182Z,53.59
2023-03-02T00:34:19.430Z,53.59
2023-03-02T00:34:29.670Z,53.59
2023-03-02T00:34:39.916Z,53.70
2023-03-02T00:34:50.175Z,53.70
2023-03-02T00:35:00.418Z,53.81
2023-03-02T00:35:10.655Z,53.91
2023-03-02T00:35:20.969Z,53.91
2023-03-02T00:35:31.234Z,53.81
2023-03-02T00:35:41.527Z,53.81
2023-03-02T00:35:51.848Z,53.81
2023-03-02T00:36:02.129Z,53.81
2023-03-02T00:36:12.379Z,53.70
2023-03-02T00:36:22.624Z,53.70
2023-03-02T00:36:32.903Z,53.59
2023-03-02T00:36:43.528Z,53.49
2023-03-02T00:36:53.341Z,53.49
2023-03-02T00:37:03.581Z,53.39
2023-03-02T00:37:13.823Z,53.39
2023-03-02T00:37:24.088Z,53.39
2023-03-02T00:37:34.331Z,53.28
2023-03-02T00:37:44.606Z,53.28
2023-03-02T00:37:54.849Z,53.28
2023-03-02T00:38:05.114Z,53.28
2023-03-02T00:38:15.363Z,53.39
2023-03-02T00:38:25.685Z,53.39
2023-03-02T00:38:35.937Z,53.39
2023-03-02T00:38:46.210Z,53.49
2023-03-02T00:38:56.451Z,53.49
2023-03-02T00:39:06.719Z,53.49
2023-03-02T00:39:16.987Z,53.39
2023-03-02T00:39:27.259Z,53.39
2023-03-02T00:39:37.536Z,53.39
2023-03-02T00:39:47.812Z,53.39
2023-03-02T00:39:58.069Z,53.49
2023-03-02T00:40:08.341Z,53.59
2023-03-02T00:40:18.609Z,53.59
2023-03-02T00:40:28.882Z,53.49
2023-03-02T00:40:39.150Z,53.49
2023-03-02T00:40:49.422Z,53.59
2023-03-02T00:40:59.677Z,53.59
2023-03-02T00:41:09.979Z,53.59
2023-03-02T00:41:20.230Z,53.59
2023-03-02T00:41:30.488Z,53.49
2023-03-02T00:41:40.754Z,53.49
2023-03-02T00:41:51.027Z,53.49
2023-03-02T00:42:01.334Z,53.59
2023-03-02T00:42:11.599Z,53.59
2023-03-02T00:42:21.846Z,53.59
2023-03-02T00:42:32.118Z,53.59
2023-03-02T00:42:42.389Z,53.59
2023-03-02T00:42:52.658Z,53.70
2023-03-02T00:43:02.939Z,53.70
2023-03-02T00:43:13.195Z,53.70
2023-03-02T00:43:23.466Z,53.70
2023-03-02T00:43:33.738Z,53.70
2023-03-02T00:43:44.004Z,53.81
2023-03-02T00:43:54.271Z,53.91
2023-03-02T00:44:04.543Z,53.81
2023-03-02T00:44:14.814Z,53.81
2023-03-02T00:44:25.090Z,53.81
2023-03-02T00:44:35.392Z,53.81
2023-03-02T00:44:45.643Z,53.70
2023-03-02T00:44:55.906Z,53.70
2023-03-02T00:45:06.172Z,53.70
2023-03-02T00:45:16.447Z,53.70
2023-03-02T00:45:26.718Z,53.59
2023-03-02T00:45:36.991Z,53.59
2023-03-02T00:45:47.260Z,53.59
2023-03-02T00:45:57.537Z,53.49
2023-03-02T00:46:07.851Z,53.52
2023-03-02T00:46:18.155Z,53.59
2023-03-02T00:46:28.612Z,53.59
2023-03-02T00:46:38.750Z,53.59
2023-03-02T00:46:49.031Z,53.72
2023-03-02T00:46:59.349Z,53.72
2023-03-02T00:47:09.596Z,53.72
2023-03-02T00:47:19.858Z,53.70
2023-03-02T00:47:30.139Z,53.72
2023-03-02T00:47:41.551Z,53.72
2023-03-02T00:47:50.681Z,53.72
2023-03-02T00:48:00.953Z,53.83
2023-03-02T00:48:11.234Z,53.83
2023-03-02T00:48:21.505Z,53.83
2023-03-02T00:48:31.778Z,53.83
2023-03-02T00:48:42.045Z,53.83
2023-03-02T00:48:52.316Z,53.83
2023-03-02T00:49:02.584Z,53.83
2023-03-02T00:49:12.860Z,53.83
2023-03-02T00:49:23.140Z,53.94
2023-03-02T00:49:33.438Z,53.94
2023-03-02T00:49:43.677Z,53.94
2023-03-02T00:49:53.950Z,53.94
2023-03-02T00:50:04.218Z,53.83
2023-03-02T00:50:14.487Z,53.83
2023-03-02T00:50:24.766Z,53.83
2023-03-02T00:50:35.042Z,53.72
2023-03-02T00:50:45.308Z,53.72
2023-03-02T00:50:55.576Z,53.72
2023-03-02T00:51:05.843Z,53.83
2023-03-02T00:51:16.116Z,53.83
2023-03-02T00:51:26.380Z,53.83
2023-03-02T00:51:36.673Z,53.83
2023-03-02T00:51:46.953Z,53.83
2023-03-02T00:51:57.191Z,53.83
2023-03-02T00:52:07.459Z,53.94
2023-03-02T00:52:17.757Z,53.94
2023-03-02T00:52:28.012Z,53.83
2023-03-02T00:52:38.283Z,53.83
2023-03-02T00:52:48.550Z,53.83
2023-03-02T00:52:58.838Z,53.72
2023-03-02T00:53:09.101Z,53.72
2023-03-02T00:53:19.383Z,53.72
2023-03-02T00:53:29.652Z,53.72
2023-03-02T00:53:39.922Z,53.72
2023-03-02T00:53:50.205Z,53.72
2023-03-02T00:54:00.462Z,53.72
2023-03-02T00:54:10.745Z,53.72
2023-03-02T00:54:21.018Z,53.83
2023-03-02T00:54:31.271Z,53.94
2023-03-02T00:54:41.552Z,53.94
2023-03-02T00:54:51.822Z,54.04
2023-03-02T00:55:02.097Z,54.04
2023-03-02T00:55:12.345Z,54.04
2023-03-02T00:55:22.636Z,54.04
2023-03-02T00:55:32.891Z,54.04
2023-03-02T00:55:43.154Z,54.14
2023-03-02T00:55:53.424Z,54.14
2023-03-02T00:56:03.709Z,54.14
2023-03-02T00:56:13.972Z,54.14
2023-03-02T00:56:24.229Z,54.04
2023-03-02T00:56:34.771Z,54.04
2023-03-02T00:56:44.873Z,54.04
2023-03-02T00:56:55.144Z,53.94
2023-03-02T00:57:05.426Z,53.94
2023-03-02T00:57:15.697Z,53.83
2023-03-02T00:57:25.993Z,53.83
2023-03-02T00:57:36.243Z,53.72
2023-03-02T00:57:46.510Z,53.72
2023-03-02T00:57:56.780Z,53.62
2023-03-02T00:58:07.049Z,53.62
2023-03-02T00:58:17.320Z,53.62
2023-03-02T00:58:27.606Z,53.62
2023-03-02T00:58:37.879Z,53.62
2023-03-02T00:58:48.150Z,53.72
2023-03-02T00:58:58.414Z,53.72
2023-03-02T00:59:08.704Z,53.72
2023-03-02T00:59:18.964Z,53.75
2023-03-02T00:59:29.267Z,53.75
2023-03-02T00:59:39.500Z,53.64
2023-03-02T00:59:49.766Z,53.64
2023-03-02T01:00:00.035Z,53.62
2023-03-02T01:00:10.310Z,53.64
2023-03-02T01:00:20.581Z,53.64
2023-03-02T01:00:30.849Z,53.75
2023-03-02T01:00:41.118Z,53.75
2023-03-02T01:00:51.385Z,53.86
2023-03-02T01:01:01.657Z,53.96
2023-03-02T01:01:11.935Z,54.06
2023-03-02T01:01:22.203Z,54.06
2023-03-02T01:01:32.530Z,53.96
2023-03-02T01:01:42.793Z,53.96
2023-03-02T01:01:53.114Z,53.96
2023-03-02T01:02:03.369Z,54.17
2023-03-02T01:02:13.701Z,54.27
2023-03-02T01:02:24.151Z,54.49
2023-03-02T01:02:34.417Z,54.49
2023-03-02T01:02:44.740Z,54.49
2023-03-02T01:02:54.926Z,54.38
2023-03-02T01:03:05.298Z,54.27
2023-03-02T01:03:15.598Z,54.17
2023-03-02T01:03:25.937Z,54.06
2023-03-02T01:03:36.230Z,54.06
2023-03-02T01:03:46.495Z,54.06
2023-03-02T01:03:56.765Z,53.96
2023-03-02T01:04:07.033Z,54.06
2023-03-02T01:04:17.309Z,54.17
2023-03-02T01:04:27.582Z,54.17
2023-03-02T01:04:37.847Z,54.17
2023-03-02T01:04:48.137Z,54.17
2023-03-02T01:04:58.402Z,54.27
2023-03-02T01:05:08.664Z,54.38
2023-03-02T01:05:18.940Z,54.38
2023-03-02T01:05:29.208Z,54.27
2023-03-02T01:05:39.482Z,54.06
2023-03-02T01:05:49.746Z,53.96
2023-03-02T01:06:00.024Z,53.96
2023-03-02T01:06:10.459Z,53.86
2023-03-02T01:06:20.705Z,53.75
2023-03-02T01:06:31.270Z,53.75
2023-03-02T01:06:41.302Z,53.75
2023-03-02T01:06:51.548Z,53.75
2023-03-02T01:07:01.817Z,53.86
2023-03-02T01:07:12.093Z,53.96
2023-03-02T01:07:22.362Z,53.96
2023-03-02T01:07:32.628Z,53.96
2023-03-02T01:07:42.909Z,54.06
2023-03-02T01:07:53.166Z,54.06
2023-03-02T01:08:03.430Z,54.06
2023-03-02T01:08:13.703Z,54.06
2023-03-02T01:08:23.984Z,54.06
2023-03-02T01:08:34.253Z,54.06
2023-03-02T01:08:44.543Z,54.06
2023-03-02T01:08:54.808Z,54.27
2023-03-02T01:09:05.075Z,54.38
2023-03-02T01:09:15.345Z,54.49
2023-03-02T01:09:25.619Z,54.49
2023-03-02T01:09:35.884Z,54.49
2023-03-02T01:09:46.170Z,54.38
2023-03-02T01:09:56.466Z,54.38
2023-03-02T01:10:06.725Z,54.27
2023-03-02T01:10:16.971Z,54.17
2023-03-02T01:10:27.244Z,54.17
2023-03-02T01:10:37.520Z,54.06
2023-03-02T01:10:47.791Z,54.06
2023-03-02T01:10:58.059Z,54.06
2023-03-02T01:11:08.325Z,54.06
2023-03-02T01:11:18.608Z,54.06
2023-03-02T01:11:28.873Z,53.96
2023-03-02T01:11:39.174Z,54.06
2023-03-02T01:11:49.439Z,54.17
2023-03-02T01:11:59.710Z,54.38
2023-03-02T01:12:09.984Z,54.38
2023-03-02T01:12:20.247Z,54.49
2023-03-02T01:12:30.520Z,54.49
2023-03-02T01:12:40.793Z,54.38
2023-03-02T01:12:51.067Z,54.38
2023-03-02T01:13:01.336Z,54.27
2023-03-02T01:13:11.601Z,54.27
2023-03-02T01:13:21.886Z,54.27
2023-03-02T01:13:32.160Z,54.27
2023-03-02T01:13:42.425Z,54.27
2023-03-02T01:13:52.710Z,54.27
2023-03-02T01:14:02.965Z,54.27
2023-03-02T01:14:13.241Z,54.27
2023-03-02T01:14:23.507Z,54.27
2023-03-02T01:14:33.782Z,54.38
2023-03-02T01:14:44.048Z,54.38
2023-03-02T01:14:54.314Z,54.38
2023-03-02T01:15:04.585Z,54.38
2023-03-02T01:15:14.871Z,54.38
2023-03-02T01:15:25.124Z,54.27
2023-03-02T01:15:35.398Z,54.30
2023-03-02T01:15:45.728Z,54.27
2023-03-02T01:15:56.038Z,54.27
2023-03-02T01:16:06.330Z,54.27
2023-03-02T01:16:16.624Z,54.19
2023-03-02T01:16:26.920Z,54.19
2023-03-02T01:16:37.262Z,54.19
2023-03-02T01:16:47.545Z,54.19
2023-03-02T01:16:57.815Z,54.19
2023-03-02T01:17:08.092Z,54.19
2023-03-02T01:17:18.376Z,54.19
2023-03-02T01:17:28.634Z,54.30
2023-03-02T01:17:38.906Z,54.41
2023-03-02T01:17:49.173Z,54.41
2023-03-02T01:17:59.445Z,54.51
2023-03-02T01:18:11.566Z,54.51
2023-03-02T01:18:19.969Z,54.61
2023-03-02T01:18:30.231Z,54.72
2023-03-02T01:18:40.500Z,54.72
2023-03-02T01:18:50.773Z,54.72
2023-03-02T01:19:01.040Z,54.72
2023-03-02T01:19:11.306Z,54.83
2023-03-02T01:19:21.573Z,54.72
2023-03-02T01:19:31.844Z,54.72
2023-03-02T01:19:42.153Z,54.61
2023-03-02T01:19:52.395Z,54.61
2023-03-02T01:20:02.664Z,54.61
2023-03-02T01:20:12.935Z,54.61
2023-03-02T01:20:23.214Z,54.72
2023-03-02T01:20:33.478Z,54.61
2023-03-02T01:20:43.741Z,54.61
2023-03-02T01:20:54.009Z,54.61
2023-03-02T01:21:04.278Z,54.51
2023-03-02T01:21:14.570Z,54.51
2023-03-02T01:21:24.821Z,54.51
2023-03-02T01:21:35.102Z,54.51
2023-03-02T01:21:45.388Z,54.51
2023-03-02T01:21:55.631Z,54.51
2023-03-02T01:22:05.905Z,54.51
2023-03-02T01:22:16.172Z,54.51
2023-03-02T01:22:26.443Z,54.61
2023-03-02T01:22:36.718Z,54.61
2023-03-02T01:22:46.979Z,54.72
2023-03-02T01:22:57.249Z,54.72
2023-03-02T01:23:07.520Z,54.72
2023-03-02T01:23:17.791Z,54.61
2023-03-02T01:23:28.082Z,54.61
2023-03-02T01:23:38.350Z,54.61
2023-03-02T01:23:48.631Z,54.61
2023-03-02T01:23:58.892Z,54.61
2023-03-02T01:24:09.161Z,54.61
2023-03-02T01:24:19.433Z,54.51
2023-03-02T01:24:29.714Z,54.51
2023-03-02T01:24:39.981Z,54.51
2023-03-02T01:24:50.256Z,54.41
2023-03-02T01:25:00.544Z,54.41
2023-03-02T01:25:10.782Z,54.41
2023-03-02T01:25:21.049Z,54.41
2023-03-02T01:25:31.328Z,54.41
2023-03-02T01:25:41.603Z,54.30
2023-03-02T01:25:51.859Z,54.30
2023-03-02T01:26:02.129Z,54.30
2023-03-02T01:26:12.399Z,54.30
2023-03-02T01:26:22.680Z,54.19
2023-03-02T01:26:33.413Z,54.19
2023-03-02T01:26:43.316Z,54.30
2023-03-02T01:26:53.584Z,54.19
2023-03-02T01:27:03.855Z,54.30
2023-03-02T01:27:14.142Z,54.30
2023-03-02T01:27:24.435Z,54.30
2023-03-02T01:27:34.673Z,54.30
2023-03-02T01:27:44.946Z,54.30
2023-03-02T01:27:55.212Z,54.41
2023-03-02T01:28:05.494Z,54.41
2023-03-02T01:28:15.752Z,54.51
2023-03-02T01:28:26.041Z,54.51
2023-03-02T01:28:36.352Z,54.51
2023-03-02T01:28:46.610Z,54.51
2023-03-02T01:28:56.880Z,54.51
2023-03-02T01:29:07.152Z,54.51
2023-03-02T01:29:17.429Z,54.51
2023-03-02T01:29:27.692Z,54.51
2023-03-02T01:29:37.963Z,54.61
2023-03-02T01:29:48.230Z,54.61
2023-03-02T01:29:58.496Z,54.61
2023-03-02T01:30:08.785Z,54.64
2023-03-02T01:30:19.043Z,54.61
2023-03-02T01:30:29.309Z,54.64
2023-03-02T01:30:39.580Z,54.72
2023-03-02T01:30:49.841Z,54.72
2023-03-02T01:31:00.143Z,54.83
2023-03-02T01:31:10.455Z,54.93
2023-03-02T01:31:20.706Z,55.14
2023-03-02T01:31:31.024Z,55.17
2023-03-02T01:31:41.436Z,55.14
2023-03-02T01:31:51.864Z,55.06
2023-03-02T01:32:02.192Z,54.96
2023-03-02T01:32:12.386Z,54.96
2023-03-02T01:32:22.667Z,54.85
2023-03-02T01:32:32.975Z,54.75
2023-03-02T01:32:43.249Z,54.64
2023-03-02T01:32:53.517Z,54.64
2023-03-02T01:33:03.786Z,54.53
2023-03-02T01:33:14.052Z,54.53
2023-03-02T01:33:24.341Z,54.53
2023-03-02T01:33:34.610Z,54.53
2023-03-02T01:33:44.870Z,54.43
2023-03-02T01:33:55.138Z,54.43
2023-03-02T01:34:05.448Z,54.43
2023-03-02T01:34:15.678Z,54.33
2023-03-02T01:34:25.949Z,54.33
2023-03-02T01:34:36.217Z,54.33
2023-03-02T01:34:46.496Z,54.33
2023-03-02T01:34:56.786Z,54.43
2023-03-02T01:35:07.049Z,54.43
2023-03-02T01:35:17.315Z,54.43
2023-03-02T01:35:27.601Z,54.53
2023-03-02T01:35:37.996Z,54.64
2023-03-02T01:35:48.345Z,54.64
2023-03-02T01:35:58.730Z,54.64
2023-03-02T01:36:08.964Z,54.75
2023-03-02T01:36:19.236Z,54.75
2023-03-02T01:36:29.557Z,54.75
2023-03-02T01:36:39.820Z,54.85
2023-03-02T01:36:50.139Z,54.96
2023-03-02T01:37:00.380Z,55.06
2023-03-02T01:37:10.658Z,54.96
2023-03-02T01:37:20.957Z,54.96
2023-03-02T01:37:31.199Z,54.85
2023-03-02T01:37:41.458Z,54.75
2023-03-02T01:37:51.728Z,54.75
2023-03-02T01:38:02.005Z,54.75
2023-03-02T01:38:12.302Z,54.64
2023-03-02T01:38:22.656Z,54.64
2023-03-02T01:38:32.997Z,54.64
2023-03-02T01:38:43.296Z,54.64
2023-03-02T01:38:53.610Z,54.64
2023-03-02T01:39:03.840Z,54.64
2023-03-02T01:39:14.112Z,54.75
2023-03-02T01:39:24.379Z,54.85
2023-03-02T01:39:34.652Z,54.85
2023-03-02T01:39:44.920Z,54.96
2023-03-02T01:39:55.202Z,54.96
2023-03-02T01:40:05.467Z,54.85
2023-03-02T01:40:15.739Z,54.85
2023-03-02T01:40:26.003Z,54.85
2023-03-02T01:40:36.312Z,54.85
2023-03-02T01:40:46.578Z,54.85
2023-03-02T01:40:56.859Z,54.85
2023-03-02T01:41:07.120Z,54.96
2023-03-02T01:41:17.396Z,54.96
2023-03-02T01:41:27.671Z,54.85
2023-03-02T01:41:37.937Z,54.85
2023-03-02T01:41:48.200Z,54.85
2023-03-02T01:41:58.482Z,54.75
2023-03-02T01:42:08.740Z,54.75
2023-03-02T01:42:19.007Z,54.75
2023-03-02T01:42:29.274Z,54.64
2023-03-02T01:42:39.550Z,54.64
2023-03-02T01:42:49.811Z,54.75
2023-03-02T01:43:00.108Z,54.75
2023-03-02T01:43:10.350Z,54.85
2023-03-02T01:43:20.623Z,54.85
2023-03-02T01:43:30.913Z,54.85
2023-03-02T01:43:41.192Z,54.96
2023-03-02T01:43:51.462Z,55.06
2023-03-02T01:44:01.728Z,55.06
2023-03-02T01:44:11.995Z,55.08
2023-03-02T01:44:22.265Z,55.06
2023-03-02T01:44:32.543Z,55.17
2023-03-02T01:44:42.860Z,55.27
2023-03-02T01:44:53.091Z,55.27
2023-03-02T01:45:03.392Z,55.27
2023-03-02T01:45:13.649Z,55.27
2023-03-02T01:45:23.964Z,55.17
2023-03-02T01:45:34.232Z,55.17
2023-03-02T01:45:44.593Z,55.17
2023-03-02T01:45:54.926Z,55.06
2023-03-02T01:46:05.328Z,55.06
2023-03-02T01:46:15.634Z,55.08
2023-03-02T01:46:25.868Z,55.08
2023-03-02T01:46:36.135Z,55.08
2023-03-02T01:46:46.413Z,55.08
2023-03-02T01:46:56.678Z,55.08
2023-03-02T01:47:06.948Z,55.19
2023-03-02T01:47:17.220Z,55.40
2023-03-02T01:47:27.489Z,55.51
2023-03-02T01:47:37.755Z,55.62
2023-03-02T01:47:48.029Z,55.62
2023-03-02T01:47:58.298Z,55.62
2023-03-02T01:48:08.564Z,55.62
2023-03-02T01:48:18.838Z,55.51
2023-03-02T01:48:29.108Z,55.40
2023-03-02T01:48:39.435Z,55.40
2023-03-02T01:48:49.687Z,55.40
2023-03-02T01:48:59.965Z,55.51
2023-03-02T01:49:10.249Z,55.62
2023-03-02T01:49:20.509Z,55.62
2023-03-02T01:49:30.777Z,55.62
2023-03-02T01:49:41.046Z,55.62
2023-03-02T01:49:51.315Z,55.62
2023-03-02T01:50:01.637Z,55.72
2023-03-02T01:50:11.875Z,55.82
2023-03-02T01:50:22.145Z,55.82
2023-03-02T01:50:32.411Z,55.93
2023-03-02T01:50:42.702Z,55.93
2023-03-02T01:50:52.965Z,56.04
2023-03-02T01:51:03.248Z,56.04
2023-03-02T01:51:13.497Z,56.14
2023-03-02T01:51:23.790Z,56.24
2023-03-02T01:51:34.034Z,56.35
2023-03-02T01:51:44.313Z,56.35
2023-03-02T01:51:54.597Z,56.46
2023-03-02T01:52:04.841Z,56.46
2023-03-02T01:52:15.120Z,56.56
2023-03-02T01:52:25.405Z,56.46
2023-03-02T01:52:35.652Z,56.46
2023-03-02T01:52:45.918Z,56.35
2023-03-02T01:52:56.187Z,56.35
2023-03-02T01:53:06.460Z,56.35
2023-03-02T01:53:16.728Z,56.35
2023-03-02T01:53:26.998Z,56.24
2023-03-02T01:53:37.292Z,56.24
2023-03-02T01:53:47.589Z,56.14
2023-03-02T01:53:57.852Z,56.14
2023-03-02T01:54:08.119Z,56.04
2023-03-02T01:54:18.388Z,55.93
2023-03-02T01:54:28.656Z,55.82
2023-03-02T01:54:38.928Z,55.72
2023-03-02T01:54:49.196Z,55.62
2023-03-02T01:54:59.469Z,55.62
2023-03-02T01:55:09.739Z,55.62
2023-03-02T01:55:20.001Z,55.62
2023-03-02T01:55:30.275Z,55.72
2023-03-02T01:55:40.545Z,55.82
2023-03-02T01:55:50.814Z,55.82
2023-03-02T01:56:01.076Z,55.82
2023-03-02T01:56:11.356Z,55.93
2023-03-02T01:56:21.621Z,56.04
2023-03-02T01:56:32.167Z,56.04
2023-03-02T01:56:42.176Z,56.14
2023-03-02T01:56:52.466Z,56.14
2023-03-02T01:57:02.718Z,56.14
2023-03-02T01:57:12.993Z,56.24
2023-03-02T01:57:23.256Z,56.35
2023-03-02T01:57:33.521Z,56.35
2023-03-02T01:57:44.029Z,56.35
2023-03-02T01:57:54.058Z,56.35
2023-03-02T01:58:04.323Z,56.46
2023-03-02T01:58:14.586Z,56.46
2023-03-02T01:58:24.852Z,56.46
2023-03-02T01:58:35.137Z,56.56
2023-03-02T01:58:45.405Z,56.67
2023-03-02T01:58:55.674Z,56.67
2023-03-02T01:59:05.950Z,56.77
2023-03-02T01:59:16.243Z,56.98
2023-03-02T01:59:26.488Z,57.09
2023-03-02T01:59:36.758Z,57.09
2023-03-02T01:59:47.075Z,57.19
2023-03-02T01:59:57.300Z,57.19
2023-03-02T02:00:07.566Z,57.19
2023-03-02T02:00:17.812Z,57.19
2023-03-02T02:00:28.081Z,57.09
2023-03-02T02:00:38.407Z,57.09
2023-03-02T02:00:48.694Z,57.19
2023-03-02T02:00:58.988Z,57.19
2023-03-02T02:01:09.368Z,57.19
2023-03-02T02:01:19.656Z,57.19
2023-03-02T02:01:30.023Z,57.09
2023-03-02T02:01:40.308Z,57.09
2023-03-02T02:01:50.600Z,56.88
2023-03-02T02:02:00.850Z,56.77
2023-03-02T02:02:11.115Z,56.67
2023-03-02T02:02:21.390Z,56.67
2023-03-02T02:02:31.666Z,56.67
2023-03-02T02:02:41.941Z,56.67
2023-03-02T02:02:52.200Z,56.67
2023-03-02T02:03:02.466Z,56.56
2023-03-02T02:03:12.782Z,56.56
2023-03-02T02:03:23.033Z,56.46
2023-03-02T02:03:33.306Z,56.48
2023-03-02T02:03:43.614Z,56.56
2023-03-02T02:03:53.903Z,56.59
2023-03-02T02:04:04.280Z,56.67
2023-03-02T02:04:14.643Z,56.67
2023-03-02T02:04:24.955Z,56.69
2023-03-02T02:04:35.196Z,56.59
2023-03-02T02:04:45.457Z,56.48
2023-03-02T02:04:55.727Z,56.46
2023-03-02T02:05:06.000Z,56.38
2023-03-02T02:05:16.274Z,56.38
2023-03-02T02:05:26.539Z,56.38
2023-03-02T02:05:36.805Z,56.38
2023-03-02T02:05:47.103Z,56.27
2023-03-02T02:05:57.345Z,56.27
2023-03-02T02:06:07.612Z,56.16
2023-03-02T02:06:17.922Z,56.06
2023-03-02T02:06:28.223Z,56.06
2023-03-02T02:06:38.499Z,56.06
2023-03-02T02:06:48.766Z,56.06
2023-03-02T02:06:59.059Z,56.06
2023-03-02T02:07:09.325Z,56.16
2023-03-02T02:07:19.577Z,56.27
2023-03-02T02:07:29.857Z,56.38
2023-03-02T02:07:40.112Z,56.48
2023-03-02T02:07:50.390Z,56.59
2023-03-02T02:08:00.655Z,56.59
2023-03-02T02:08:10.931Z,56.59
2023-03-02T02:08:21.201Z,56.59
2023-03-02T02:08:31.495Z,56.59
2023-03-02T02:08:41.756Z,56.48
2023-03-02T02:08:52.038Z,56.48
2023-03-02T02:09:02.300Z,56.48
2023-03-02T02:09:12.567Z,56.48
2023-03-02T02:09:22.834Z,56.38
2023-03-02T02:09:33.114Z,56.38
2023-03-02T02:09:43.381Z,56.27
2023-03-02T02:09:53.644Z,56.27
2023-03-02T02:10:03.915Z,56.16
2023-03-02T02:10:14.184Z,56.16
2023-03-02T02:10:24.474Z,56.06
2023-03-02T02:10:34.725Z,55.96
2023-03-02T02:10:44.989Z,55.85
2023-03-02T02:10:55.262Z,55.85
2023-03-02T02:11:05.530Z,55.85
2023-03-02T02:11:15.800Z,55.85
2023-03-02T02:11:26.064Z,55.96
2023-03-02T02:11:36.333Z,56.06
2023-03-02T02:11:46.616Z,56.16
2023-03-02T02:11:56.876Z,56.27
2023-03-02T02:12:07.200Z,56.38
2023-03-02T02:12:17.468Z,56.48